Promontory, Utah
Current Conditions -  °F | °C
As of 8:15 PM on Monday 26 Jan 2015 (Local Time) from KBMC Reporting Station
Clear Clear  
Wind Chill:   Ceiling: Unl
Heat Index:   Visibility: 7mi
Dew Point:   Wind: 3mph
Humidity: 85%   Direction: 120°ESE
Pressure: 30.24"   Gusts: NA
Location:  41.5038°N, 112.48°W
Report Text: KBMC 270315Z AUTO 12003KT 7SM CLR 03/01 A3024 RMK AO1 T00280005
Loading
Personal Weather Stations






























Interactive Weather Map New forecast layout! Learn more

10-Day Weather Forecast

Advertisements
Track Severe Weather on mobile